sensor_id;sensor_type;location;lat;lon;timestamp;pressure;altitude;pressure_sealevel;temperature;humidity
11448;BME280;43755;49.736;8.734;2024-01-11T00:00:54;98943.16;;;-6.50;100.00
11448;BME280;43755;49.736;8.734;2024-01-11T00:02:55;98944.91;;;-6.49;100.00
11448;BME280;43755;49.736;8.734;2024-01-11T00:04:57;98947.59;;;-6.46;100.00
11448;BME280;43755;49.736;8.734;2024-01-11T00:06:58;98945.94;;;-6.44;100.00
11448;BME280;43755;49.736;8.734;2024-01-11T00:08:59;98951.97;;;-6.43;100.00
11448;BME280;43755;49.736;8.734;2024-01-11T00:11:01;98945.00;;;-6.46;100.00
11448;BME280;43755;49.736;8.734;2024-01-11T00:13:02;98939.84;;;-6.46;100.00
11448;BME280;43755;49.736;8.734;2024-01-11T00:15:05;98940.00;;;-6.43;100.00
11448;BME280;43755;49.736;8.734;2024-01-11T00:17:06;98941.44;;;-6.49;100.00
11448;BME280;43755;49.736;8.734;2024-01-11T00:19:08;98938.31;;;-6.42;100.00
11448;BME280;43755;49.736;8.734;2024-01-11T00:21:11;98932.13;;;-6.46;100.00
11448;BME280;43755;49.736;8.734;2024-01-11T00:23:12;98932.84;;;-6.50;100.00
11448;BME280;43755;49.736;8.734;2024-01-11T00:25:13;98927.63;;;-6.51;100.00
11448;BME280;43755;49.736;8.734;2024-01-11T00:27:14;98927.47;;;-6.56;100.00
11448;BME280;43755;49.736;8.734;2024-01-11T00:29:15;98931.72;;;-6.56;100.00
11448;BME280;43755;49.736;8.734;2024-01-11T00:31:16;98935.19;;;-6.56;100.00
11448;BME280;43755;49.736;8.734;2024-01-11T00:33:18;98935.91;;;-6.58;100.00
11448;BME280;43755;49.736;8.734;2024-01-11T00:35:19;98932.47;;;-6.59;100.00
11448;BME280;43755;49.736;8.734;2024-01-11T00:37:21;98936.00;;;-6.57;100.00
11448;BME280;43755;49.736;8.734;2024-01-11T00:39:22;98938.47;;;-6.60;100.00
11448;BME280;43755;49.736;8.734;2024-01-11T00:41:24;98946.19;;;-6.60;100.00
11448;BME280;43755;49.736;8.734;2024-01-11T00:43:25;98935.88;;;-6.60;100.00
11448;BME280;43755;49.736;8.734;2024-01-11T00:45:26;98941.03;;;-6.60;100.00
11448;BME280;43755;49.736;8.734;2024-01-11T00:47:28;98948.16;;;-6.53;100.00
11448;BME280;43755;49.736;8.734;2024-01-11T00:49:29;98955.00;;;-6.53;100.00
11448;BME280;43755;49.736;8.734;2024-01-11T00:51:30;98951.50;;;-6.55;100.00
11448;BME280;43755;49.736;8.734;2024-01-11T00:53:33;98960.03;;;-6.56;100.00
11448;BME280;43755;49.736;8.734;2024-01-11T00:55:34;98959.16;;;-6.57;100.00
11448;BME280;43755;49.736;8.734;2024-01-11T00:57:36;98961.72;;;-6.57;100.00
11448;BME280;43755;49.736;8.734;2024-01-11T00:59:36;98956.34;;;-6.63;100.00
11448;BME280;43755;49.736;8.734;2024-01-11T01:01:38;98949.41;;;-6.66;100.00
11448;BME280;43755;49.736;8.734;2024-01-11T01:03:39;98945.72;;;-6.71;100.00
11448;BME280;43755;49.736;8.734;2024-01-11T01:05:40;98949.81;;;-6.76;100.00
11448;BME280;43755;49.736;8.734;2024-01-11T01:07:42;98951.47;;;-6.78;100.00
11448;BME280;43755;49.736;8.734;2024-01-11T01:09:45;98952.22;;;-6.80;100.00
11448;BME280;43755;49.736;8.734;2024-01-11T01:11:46;98952.31;;;-6.77;100.00
11448;BME280;43755;49.736;8.734;2024-01-11T01:13:47;98960.75;;;-6.81;100.00
11448;BME280;43755;49.736;8.734;2024-01-11T01:15:49;98954.53;;;-6.86;100.00
11448;BME280;43755;49.736;8.734;2024-01-11T01:17:50;98956.16;;;-6.88;100.00
11448;BME280;43755;49.736;8.734;2024-01-11T01:19:52;98958.88;;;-6.85;100.00
11448;BME280;43755;49.736;8.734;2024-01-11T01:21:53;98953.84;;;-6.82;100.00
11448;BME280;43755;49.736;8.734;2024-01-11T01:23:53;98956.88;;;-6.92;100.00
11448;BME280;43755;49.736;8.734;2024-01-11T01:25:56;98954.19;;;-6.95;100.00
11448;BME280;43755;49.736;8.734;2024-01-11T01:27:58;98958.25;;;-7.00;100.00
11448;BME280;43755;49.736;8.734;2024-01-11T01:30:00;98962.66;;;-6.98;100.00
11448;BME280;43755;49.736;8.734;2024-01-11T01:32:02;98959.25;;;-6.97;100.00
11448;BME280;43755;49.736;8.734;2024-01-11T01:34:04;98964.59;;;-6.92;100.00
11448;BME280;43755;49.736;8.734;2024-01-11T01:36:08;98965.53;;;-6.90;100.00
11448;BME280;43755;49.736;8.734;2024-01-11T01:38:10;98965.78;;;-6.84;100.00
11448;BME280;43755;49.736;8.734;2024-01-11T01:40:11;98959.00;;;-6.82;100.00
11448;BME280;43755;49.736;8.734;2024-01-11T01:42:14;98962.41;;;-6.83;100.00
11448;BME280;43755;49.736;8.734;2024-01-11T01:44:16;98960.75;;;-6.81;100.00
11448;BME280;43755;49.736;8.734;2024-01-11T01:46:22;98966.72;;;-6.82;100.00
11448;BME280;43755;49.736;8.734;2024-01-11T01:48:24;98964.59;;;-6.92;100.00
11448;BME280;43755;49.736;8.734;2024-01-11T01:50:26;98963.56;;;-6.75;100.00
11448;BME280;43755;49.736;8.734;2024-01-11T01:52:26;98968.28;;;-6.86;100.00
11448;BME280;43755;49.736;8.734;2024-01-11T01:54:28;98963.22;;;-6.84;100.00
11448;BME280;43755;49.736;8.734;2024-01-11T01:56:29;98967.66;;;-6.80;100.00
11448;BME280;43755;49.736;8.734;2024-01-11T01:58:33;98968.28;;;-6.86;100.00
11448;BME280;43755;49.736;8.734;2024-01-11T02:00:34;98963.22;;;-6.84;100.00
11448;BME280;43755;49.736;8.734;2024-01-11T02:02:35;98970.63;;;-6.92;100.00
11448;BME280;43755;49.736;8.734;2024-01-11T02:04:37;98964.59;;;-6.92;100.00
11448;BME280;43755;49.736;8.734;2024-01-11T02:06:38;98970.47;;;-6.95;100.00
11448;BME280;43755;49.736;8.734;2024-01-11T02:08:40;98973.66;;;-7.00;100.00
11448;BME280;43755;49.736;8.734;2024-01-11T02:10:43;98967.44;;;-7.07;100.00
11448;BME280;43755;49.736;8.734;2024-01-11T02:12:45;98967.28;;;-7.10;100.00
11448;BME280;43755;49.736;8.734;2024-01-11T02:14:48;98967.28;;;-7.10;100.00
11448;BME280;43755;49.736;8.734;2024-01-11T02:16:49;98972.16;;;-7.16;100.00
11448;BME280;43755;49.736;8.734;2024-01-11T02:18:51;98970.66;;;-7.11;100.00
11448;BME280;43755;49.736;8.734;2024-01-11T02:20:52;98965.53;;;-7.11;100.00
11448;BME280;43755;49.736;8.734;2024-01-11T02:22:58;98964.91;;;-7.06;100.00
11448;BME280;43755;49.736;8.734;2024-01-11T02:25:04;98964.22;;;-7.01;100.00
11448;BME280;43755;49.736;8.734;2024-01-11T02:27:05;98967.47;;;-7.06;100.00
11448;BME280;43755;49.736;8.734;2024-01-11T02:29:07;98961.25;;;-7.11;100.00
11448;BME280;43755;49.736;8.734;2024-01-11T02:31:08;98975.88;;;-7.10;100.00
11448;BME280;43755;49.736;8.734;2024-01-11T02:33:09;98975.13;;;-7.07;100.00
11448;BME280;43755;49.736;8.734;2024-01-11T02:35:11;98974.28;;;-7.06;100.00
11448;BME280;43755;49.736;8.734;2024-01-11T02:37:13;98977.75;;;-7.06;100.00
11448;BME280;43755;49.736;8.734;2024-01-11T02:39:16;98972.69;;;-7.04;100.00
11448;BME280;43755;49.736;8.734;2024-01-11T02:41:20;98969.13;;;-7.08;100.00
11448;BME280;43755;49.736;8.734;2024-01-11T02:43:22;98970.81;;;-7.08;100.00
11448;BME280;43755;49.736;8.734;2024-01-11T02:45:24;98976.00;;;-7.07;100.00
11448;BME280;43755;49.736;8.734;2024-01-11T02:47:25;98978.34;;;-7.13;100.00
11448;BME280;43755;49.736;8.734;2024-01-11T02:49:26;98971.28;;;-7.17;100.00
11448;BME280;43755;49.736;8.734;2024-01-11T02:51:28;98973.06;;;-7.16;100.00
11448;BME280;43755;49.736;8.734;2024-01-11T02:53:28;98973.06;;;-7.16;100.00
11448;BME280;43755;49.736;8.734;2024-01-11T02:55:34;98972.09;;;-7.18;100.00
11448;BME280;43755;49.736;8.734;2024-01-11T02:57:37;98977.94;;;-7.22;100.00
11448;BME280;43755;49.736;8.734;2024-01-11T02:59:39;98967.28;;;-7.31;100.00
11448;BME280;43755;49.736;8.734;2024-01-11T03:01:40;98974.09;;;-7.31;100.00
11448;BME280;43755;49.736;8.734;2024-01-11T03:03:42;98972.28;;;-7.34;100.00
11448;BME280;43755;49.736;8.734;2024-01-11T03:05:43;98968.81;;;-7.34;100.00
11448;BME280;43755;49.736;8.734;2024-01-11T03:07:45;98962.53;;;-7.41;100.00
11448;BME280;43755;49.736;8.734;2024-01-11T03:09:46;98962.59;;;-7.39;100.00
11448;BME280;43755;49.736;8.734;2024-01-11T03:11:47;98968.72;;;-7.37;100.00
11448;BME280;43755;49.736;8.734;2024-01-11T03:13:50;98965.31;;;-7.36;100.00
11448;BME280;43755;49.736;8.734;2024-01-11T03:15:51;98959.16;;;-7.40;100.00
11448;BME280;43755;49.736;8.734;2024-01-11T03:17:53;98953.22;;;-7.39;100.00
11448;BME280;43755;49.736;8.734;2024-01-11T03:19:54;98953.47;;;-7.33;100.00
11448;BME280;43755;49.736;8.734;2024-01-11T03:21:56;98943.03;;;-7.36;100.00
11448;BME280;43755;49.736;8.734;2024-01-11T03:23:56;98947.25;;;-7.38;100.00
11448;BME280;43755;49.736;8.734;2024-01-11T03:25:58;98944.53;;;-7.41;100.00
11448;BME280;43755;49.736;8.734;2024-01-11T03:27:58;98944.44;;;-7.44;100.00
11448;BME280;43755;49.736;8.734;2024-01-11T03:30:01;98937.34;;;-7.50;100.00
11448;BME280;43755;49.736;8.734;2024-01-11T03:32:03;98932.00;;;-7.54;100.00
11448;BME280;43755;49.736;8.734;2024-01-11T03:34:04;98937.19;;;-7.53;100.00
11448;BME280;43755;49.736;8.734;2024-01-11T03:36:07;98939.03;;;-7.50;100.00
11448;BME280;43755;49.736;8.734;2024-01-11T03:38:08;98938.69;;;-7.58;100.00
11448;BME280;43755;49.736;8.734;2024-01-11T03:40:10;98943.63;;;-7.62;100.00
11448;BME280;43755;49.736;8.734;2024-01-11T03:42:12;98934.06;;;-7.66;100.00
11448;BME280;43755;49.736;8.734;2024-01-11T03:44:12;98934.97;;;-7.64;100.00
11448;BME280;43755;49.736;8.734;2024-01-11T03:46:15;98934.50;;;-7.56;100.00
11448;BME280;43755;49.736;8.734;2024-01-11T03:48:16;98936.47;;;-7.50;100.00
11448;BME280;43755;49.736;8.734;2024-01-11T03:50:18;98938.16;;;-7.51;100.00
11448;BME280;43755;49.736;8.734;2024-01-11T03:52:19;98942.22;;;-7.56;100.00
11448;BME280;43755;49.736;8.734;2024-01-11T03:54:21;98933.00;;;-7.51;100.00
11448;BME280;43755;49.736;8.734;2024-01-11T03:56:22;98934.25;;;-7.41;100.00
11448;BME280;43755;49.736;8.734;2024-01-11T03:58:24;98932.56;;;-7.40;100.00
11448;BME280;43755;49.736;8.734;2024-01-11T04:00:26;98938.41;;;-7.45;100.00
11448;BME280;43755;49.736;8.734;2024-01-11T04:02:29;98942.56;;;-7.48;100.00
11448;BME280;43755;49.736;8.734;2024-01-11T04:04:29;98944.84;;;-7.54;100.00
11448;BME280;43755;49.736;8.734;2024-01-11T04:06:31;98943.75;;;-7.59;100.00
11448;BME280;43755;49.736;8.734;2024-01-11T04:08:32;98944.38;;;-7.65;100.00
11448;BME280;43755;49.736;8.734;2024-01-11T04:10:34;98945.94;;;-7.68;100.00
11448;BME280;43755;49.736;8.734;2024-01-11T04:12:35;98938.97;;;-7.71;100.00
11448;BME280;43755;49.736;8.734;2024-01-11T04:14:38;98940.88;;;-7.67;100.00
11448;BME280;43755;49.736;8.734;2024-01-11T04:16:40;98943.34;;;-7.49;100.00
11448;BME280;43755;49.736;8.734;2024-01-11T04:18:43;98949.50;;;-7.46;100.00
11448;BME280;43755;49.736;8.734;2024-01-11T04:20:44;98952.00;;;-7.47;100.00
11448;BME280;43755;49.736;8.734;2024-01-11T04:22:45;98953.69;;;-7.48;100.00
11448;BME280;43755;49.736;8.734;2024-01-11T04:24:46;98946.47;;;-7.56;100.00
11448;BME280;43755;49.736;8.734;2024-01-11T04:26:47;98959.31;;;-7.56;100.00
11448;BME280;43755;49.736;8.734;2024-01-11T04:28:52;98954.38;;;-7.52;100.00
11448;BME280;43755;49.736;8.734;2024-01-11T04:30:52;98955.25;;;-7.51;100.00
11448;BME280;43755;49.736;8.734;2024-01-11T04:32:53;98954.63;;;-7.46;100.00
11448;BME280;43755;49.736;8.734;2024-01-11T04:34:56;98955.13;;;-7.54;100.00
11448;BME280;43755;49.736;8.734;2024-01-11T04:36:58;98964.47;;;-7.56;100.00
11448;BME280;43755;49.736;8.734;2024-01-11T04:38:59;98957.38;;;-7.62;100.00
11448;BME280;43755;49.736;8.734;2024-01-11T04:40:59;98958.09;;;-7.64;100.00
11448;BME280;43755;49.736;8.734;2024-01-11T04:43:01;98961.22;;;-7.71;100.00
11448;BME280;43755;49.736;8.734;2024-01-11T04:45:03;98961.28;;;-7.70;100.00
11448;BME280;43755;49.736;8.734;2024-01-11T04:47:05;98957.78;;;-7.72;100.00
11448;BME280;43755;49.736;8.734;2024-01-11T04:49:07;98959.13;;;-7.80;100.00
11448;BME280;43755;49.736;8.734;2024-01-11T04:51:09;98959.94;;;-7.81;100.00
11448;BME280;43755;49.736;8.734;2024-01-11T04:53:11;98958.25;;;-7.80;100.00
11448;BME280;43755;49.736;8.734;2024-01-11T04:55:12;98958.97;;;-7.83;100.00
11448;BME280;43755;49.736;8.734;2024-01-11T04:57:14;98959.59;;;-7.89;100.00
11448;BME280;43755;49.736;8.734;2024-01-11T04:59:15;98957.88;;;-7.90;100.00
11448;BME280;43755;49.736;8.734;2024-01-11T05:01:17;98947.59;;;-7.90;100.00
11448;BME280;43755;49.736;8.734;2024-01-11T05:03:19;98950.06;;;-7.91;100.00
11448;BME280;43755;49.736;8.734;2024-01-11T05:05:20;98953.84;;;-7.83;100.00
11448;BME280;43755;49.736;8.734;2024-01-11T05:07:22;98955.28;;;-7.90;100.00
11448;BME280;43755;49.736;8.734;2024-01-11T05:09:23;98955.50;;;-7.85;100.00
11448;BME280;43755;49.736;8.734;2024-01-11T05:11:25;98962.25;;;-7.87;100.00
11448;BME280;43755;49.736;8.734;2024-01-11T05:13:26;98963.28;;;-7.83;100.00
11448;BME280;43755;49.736;8.734;2024-01-11T05:15:28;98961.56;;;-7.83;100.00
11448;BME280;43755;49.736;8.734;2024-01-11T05:17:29;98964.13;;;-7.83;100.00
11448;BME280;43755;49.736;8.734;2024-01-11T05:19:30;98955.59;;;-7.82;100.00
11448;BME280;43755;49.736;8.734;2024-01-11T05:21:32;98962.38;;;-7.84;100.00
11448;BME280;43755;49.736;8.734;2024-01-11T05:23:34;98956.28;;;-7.86;100.00
11448;BME280;43755;49.736;8.734;2024-01-11T05:25:36;98960.69;;;-7.83;100.00
11448;BME280;43755;49.736;8.734;2024-01-11T05:27:37;98972.72;;;-7.82;100.00
11448;BME280;43755;49.736;8.734;2024-01-11T05:29:38;98971.91;;;-7.81;100.00
11448;BME280;43755;49.736;8.734;2024-01-11T05:31:40;98965.88;;;-7.82;100.00
11448;BME280;43755;49.736;8.734;2024-01-11T05:33:41;98970.63;;;-7.91;100.00
11448;BME280;43755;49.736;8.734;2024-01-11T05:35:43;98975.50;;;-7.97;100.00
11448;BME280;43755;49.736;8.734;2024-01-11T05:37:44;98983.19;;;-7.97;100.00
11448;BME280;43755;49.736;8.734;2024-01-11T05:39:47;98988.25;;;-7.99;100.00
11448;BME280;43755;49.736;8.734;2024-01-11T05:41:48;98982.09;;;-8.02;100.00
11448;BME280;43755;49.736;8.734;2024-01-11T05:43:50;98987.44;;;-7.98;100.00
11448;BME280;43755;49.736;8.734;2024-01-11T05:45:51;98997.50;;;-8.02;100.00
11448;BME280;43755;49.736;8.734;2024-01-11T05:47:52;98996.63;;;-8.03;100.00
11448;BME280;43755;49.736;8.734;2024-01-11T05:49:53;98994.00;;;-8.04;100.00
11448;BME280;43755;49.736;8.734;2024-01-11T05:51:55;98993.31;;;-8.00;100.00
11448;BME280;43755;49.736;8.734;2024-01-11T05:53:57;98997.63;;;-7.99;100.00
11448;BME280;43755;49.736;8.734;2024-01-11T05:55:59;98994.66;;;-7.89;100.00
11448;BME280;43755;49.736;8.734;2024-01-11T05:58:01;98992.50;;;-7.99;100.00
11448;BME280;43755;49.736;8.734;2024-01-11T06:00:03;98999.41;;;-7.98;100.00
11448;BME280;43755;49.736;8.734;2024-01-11T06:02:04;98993.03;;;-8.06;100.00
11448;BME280;43755;49.736;8.734;2024-01-11T06:04:06;98998.31;;;-8.03;100.00
11448;BME280;43755;49.736;8.734;2024-01-11T06:06:07;98997.44;;;-8.04;100.00
11448;BME280;43755;49.736;8.734;2024-01-11T06:08:09;98994.72;;;-8.07;100.00
11448;BME280;43755;49.736;8.734;2024-01-11T06:10:10;98996.63;;;-8.03;100.00
11448;BME280;43755;49.736;8.734;2024-01-11T06:12:13;99001.78;;;-8.03;100.00
11448;BME280;43755;49.736;8.734;2024-01-11T06:14:14;99009.59;;;-8.00;100.00
11448;BME280;43755;49.736;8.734;2024-01-11T06:16:16;99008.19;;;-7.93;100.00
11448;BME280;43755;49.736;8.734;2024-01-11T06:18:18;99003.84;;;-7.94;100.00
11448;BME280;43755;49.736;8.734;2024-01-11T06:20:19;99007.06;;;-7.80;100.00
11448;BME280;43755;49.736;8.734;2024-01-11T06:22:20;99022.63;;;-7.77;100.00
11448;BME280;43755;49.736;8.734;2024-01-11T06:24:22;99021.59;;;-7.81;100.00
11448;BME280;43755;49.736;8.734;2024-01-11T06:26:23;99019.09;;;-7.79;100.00
11448;BME280;43755;49.736;8.734;2024-01-11T06:28:25;99032.81;;;-7.79;100.00
11448;BME280;43755;49.736;8.734;2024-01-11T06:30:26;99040.34;;;-7.83;100.00
11448;BME280;43755;49.736;8.734;2024-01-11T06:32:28;99045.03;;;-7.93;100.00
11448;BME280;43755;49.736;8.734;2024-01-11T06:34:28;99055.78;;;-8.01;100.00
11448;BME280;43755;49.736;8.734;2024-01-11T06:36:30;99056.50;;;-8.04;100.00
11448;BME280;43755;49.736;8.734;2024-01-11T06:38:30;99059.88;;;-8.05;100.00
11448;BME280;43755;49.736;8.734;2024-01-11T06:40:31;99076.38;;;-8.00;100.00
11448;BME280;43755;49.736;8.734;2024-01-11T06:42:33;99065.38;;;-7.97;100.00
11448;BME280;43755;49.736;8.734;2024-01-11T06:44:36;99074.59;;;-8.01;100.00
11448;BME280;43755;49.736;8.734;2024-01-11T06:46:37;99080.97;;;-7.93;100.00
11448;BME280;43755;49.736;8.734;2024-01-11T06:48:39;99075.72;;;-7.96;100.00
11448;BME280;43755;49.736;8.734;2024-01-11T06:50:40;99077.00;;;-7.86;100.00
11448;BME280;43755;49.736;8.734;2024-01-11T06:52:41;99081.31;;;-7.67;100.00
11448;BME280;43755;49.736;8.734;2024-01-11T06:54:43;99069.66;;;-7.78;100.00
11448;BME280;43755;49.736;8.734;2024-01-11T06:56:44;99085.69;;;-7.84;100.00
11448;BME280;43755;49.736;8.734;2024-01-11T06:58:46;99087.28;;;-7.86;100.00
11448;BME280;43755;49.736;8.734;2024-01-11T07:00:49;99086.63;;;-7.82;100.00
11448;BME280;43755;49.736;8.734;2024-01-11T07:02:51;99082.88;;;-7.89;100.00
11448;BME280;43755;49.736;8.734;2024-01-11T07:04:53;99088.16;;;-7.86;100.00
11448;BME280;43755;49.736;8.734;2024-01-11T07:06:55;99078.03;;;-7.82;100.00
11448;BME280;43755;49.736;8.734;2024-01-11T07:08:56;99084.00;;;-7.83;100.00
11448;BME280;43755;49.736;8.734;2024-01-11T07:10:58;99075.47;;;-7.82;100.00
11448;BME280;43755;49.736;8.734;2024-01-11T07:13:00;99079.66;;;-7.84;100.00
11448;BME280;43755;49.736;8.734;2024-01-11T07:15:02;99071.06;;;-7.85;100.00
11448;BME280;43755;49.736;8.734;2024-01-11T07:17:06;99079.59;;;-7.86;100.00
11448;BME280;43755;49.736;8.734;2024-01-11T07:19:07;99079.50;;;-7.88;100.00
11448;BME280;43755;49.736;8.734;2024-01-11T07:21:09;99085.31;;;-7.92;100.00
11448;BME280;43755;49.736;8.734;2024-01-11T07:23:10;99095.81;;;-7.87;100.00
11448;BME280;43755;49.736;8.734;2024-01-11T07:25:12;99095.72;;;-7.89;100.00
11448;BME280;43755;49.736;8.734;2024-01-11T07:27:14;99087.09;;;-7.91;100.00
11448;BME280;43755;49.736;8.734;2024-01-11T07:29:14;99088.91;;;-7.88;100.00
11448;BME280;43755;49.736;8.734;2024-01-11T07:31:16;99080.38;;;-7.87;100.00
11448;BME280;43755;49.736;8.734;2024-01-11T07:33:19;99076.94;;;-7.88;100.00
11448;BME280;43755;49.736;8.734;2024-01-11T07:35:19;99074.28;;;-7.89;100.00
11448;BME280;43755;49.736;8.734;2024-01-11T07:37:21;99081.56;;;-7.80;100.00
11448;BME280;43755;49.736;8.734;2024-01-11T07:39:23;99091.63;;;-7.85;100.00
11448;BME280;43755;49.736;8.734;2024-01-11T07:41:25;99093.03;;;-7.92;100.00
11448;BME280;43755;49.736;8.734;2024-01-11T07:43:26;99090.38;;;-7.93;100.00
11448;BME280;43755;49.736;8.734;2024-01-11T07:45:28;99094.00;;;-7.90;100.00
11448;BME280;43755;49.736;8.734;2024-01-11T07:47:30;99083.84;;;-7.87;100.00
11448;BME280;43755;49.736;8.734;2024-01-11T07:49:33;99084.72;;;-7.86;100.00
11448;BME280;43755;49.736;8.734;2024-01-11T07:51:34;99086.28;;;-7.90;100.00
11448;BME280;43755;49.736;8.734;2024-01-11T07:53:35;99088.31;;;-7.82;100.00
11448;BME280;43755;49.736;8.734;2024-01-11T07:55:37;99088.97;;;-7.87;100.00
11448;BME280;43755;49.736;8.734;2024-01-11T07:57:39;99090.75;;;-7.86;100.00
11448;BME280;43755;49.736;8.734;2024-01-11T07:59:40;99096.88;;;-7.82;100.00
11448;BME280;43755;49.736;8.734;2024-01-11T08:01:42;99098.53;;;-7.84;100.00
11448;BME280;43755;49.736;8.734;2024-01-11T08:03:43;99096.97;;;-7.80;100.00
11448;BME280;43755;49.736;8.734;2024-01-11T08:05:47;99102.91;;;-7.81;100.00
11448;BME280;43755;49.736;8.734;2024-01-11T08:07:50;99106.22;;;-7.84;100.00
11448;BME280;43755;49.736;8.734;2024-01-11T08:09:51;99109.25;;;-7.93;100.00
11448;BME280;43755;49.736;8.734;2024-01-11T08:11:52;99106.66;;;-7.93;100.00
11448;BME280;43755;49.736;8.734;2024-01-11T08:13:54;99112.09;;;-7.87;100.00
11448;BME280;43755;49.736;8.734;2024-01-11T08:15:55;99109.81;;;-7.80;100.00
11448;BME280;43755;49.736;8.734;2024-01-11T08:17:57;99113.25;;;-7.80;100.00
11448;BME280;43755;49.736;8.734;2024-01-11T08:20:00;99114.94;;;-7.80;100.00
11448;BME280;43755;49.736;8.734;2024-01-11T08:22:03;99117.22;;;-7.87;100.00
11448;BME280;43755;49.736;8.734;2024-01-11T08:24:06;99111.28;;;-7.86;100.00
11448;BME280;43755;49.736;8.734;2024-01-11T08:26:07;99107.69;;;-7.89;100.00
11448;BME280;43755;49.736;8.734;2024-01-11T08:28:08;99103.72;;;-7.82;100.00
11448;BME280;43755;49.736;8.734;2024-01-11T08:30:10;99106.56;;;-7.76;100.00
11448;BME280;43755;49.736;8.734;2024-01-11T08:32:12;99099.00;;;-7.73;100.00
11448;BME280;43755;49.736;8.734;2024-01-11T08:34:14;99097.84;;;-7.80;100.00
11448;BME280;43755;49.736;8.734;2024-01-11T08:36:14;99097.16;;;-7.76;100.00
11448;BME280;43755;49.736;8.734;2024-01-11T08:38:17;99081.97;;;-7.71;100.00
11448;BME280;43755;49.736;8.734;2024-01-11T08:40:17;99078.88;;;-7.64;100.00
11448;BME280;43755;49.736;8.734;2024-01-11T08:42:19;99085.16;;;-7.58;100.00
11448;BME280;43755;49.736;8.734;2024-01-11T08:44:20;99076.84;;;-7.52;100.00
11448;BME280;43755;49.736;8.734;2024-01-11T08:46:25;99066.84;;;-7.46;100.00
11448;BME280;43755;49.736;8.734;2024-01-11T08:48:26;99071.44;;;-7.39;100.00
11448;BME280;43755;49.736;8.734;2024-01-11T08:50:28;99067.47;;;-7.32;100.00
11448;BME280;43755;49.736;8.734;2024-01-11T08:52:29;99067.84;;;-7.23;100.00
11448;BME280;43755;49.736;8.734;2024-01-11T08:54:33;99069.06;;;-7.15;100.00
11448;BME280;43755;49.736;8.734;2024-01-11T08:56:34;99069.41;;;-7.08;100.00
11448;BME280;43755;49.736;8.734;2024-01-11T08:58:36;99069.69;;;-7.01;100.00
11448;BME280;43755;49.736;8.734;2024-01-11T09:00:37;99056.94;;;-6.98;100.00
11448;BME280;43755;49.736;8.734;2024-01-11T09:02:39;99069.06;;;-6.96;100.00
11448;BME280;43755;49.736;8.734;2024-01-11T09:04:40;99072.63;;;-6.92;100.00
11448;BME280;43755;49.736;8.734;2024-01-11T09:06:41;99076.16;;;-6.90;100.00
11448;BME280;43755;49.736;8.734;2024-01-11T09:08:42;99086.75;;;-6.83;100.00
11448;BME280;43755;49.736;8.734;2024-01-11T09:10:45;99081.81;;;-6.78;100.00
11448;BME280;43755;49.736;8.734;2024-01-11T09:12:46;99089.91;;;-6.69;100.00
11448;BME280;43755;49.736;8.734;2024-01-11T09:14:48;99094.31;;;-6.67;100.00
11448;BME280;43755;49.736;8.734;2024-01-11T09:16:48;99101.28;;;-6.64;100.00
11448;BME280;43755;49.736;8.734;2024-01-11T09:18:50;99099.72;;;-6.60;100.00
11448;BME280;43755;49.736;8.734;2024-01-11T09:20:51;99094.50;;;-6.62;100.00
11448;BME280;43755;49.736;8.734;2024-01-11T09:22:52;99097.91;;;-6.63;100.00
11448;BME280;43755;49.736;8.734;2024-01-11T09:24:54;99105.81;;;-6.58;100.00
11448;BME280;43755;49.736;8.734;2024-01-11T09:26:57;99128.84;;;-6.62;100.00
11448;BME280;43755;49.736;8.734;2024-01-11T09:28:58;99121.69;;;-6.69;100.00
11448;BME280;43755;49.736;8.734;2024-01-11T09:30:59;99120.88;;;-6.68;100.00
11448;BME280;43755;49.736;8.734;2024-01-11T09:33:02;99127.19;;;-6.59;100.00
11448;BME280;43755;49.736;8.734;2024-01-11T09:35:05;99129.03;;;-6.57;100.00
11448;BME280;43755;49.736;8.734;2024-01-11T09:37:06;99128.31;;;-6.54;100.00
11448;BME280;43755;49.736;8.734;2024-01-11T09:39:07;99128.22;;;-6.56;100.00
11448;BME280;43755;49.736;8.734;2024-01-11T09:41:11;99125.91;;;-6.50;100.00
11448;BME280;43755;49.736;8.734;2024-01-11T09:43:15;99123.78;;;-6.39;100.00
11448;BME280;43755;49.736;8.734;2024-01-11T09:45:17;99128.31;;;-6.34;100.00
11448;BME280;43755;49.736;8.734;2024-01-11T09:47:19;99145.13;;;-6.42;100.00
11448;BME280;43755;49.736;8.734;2024-01-11T09:49:21;99153.69;;;-6.43;100.00
11448;BME280;43755;49.736;8.734;2024-01-11T09:51:23;99146.78;;;-6.44;100.00
11448;BME280;43755;49.736;8.734;2024-01-11T09:53:26;99146.78;;;-6.44;100.00
11448;BME280;43755;49.736;8.734;2024-01-11T09:55:29;99128.56;;;-6.28;100.00
11448;BME280;43755;49.736;8.734;2024-01-11T09:57:31;99108.75;;;-6.08;100.00
11448;BME280;43755;49.736;8.734;2024-01-11T09:59:35;99104.41;;;-5.87;100.00
11448;BME280;43755;49.736;8.734;2024-01-11T10:01:37;99103.06;;;-5.77;100.00
11448;BME280;43755;49.736;8.734;2024-01-11T10:03:39;99109.00;;;-5.57;100.00
11448;BME280;43755;49.736;8.734;2024-01-11T10:05:41;99102.44;;;-5.49;100.00
11448;BME280;43755;49.736;8.734;2024-01-11T10:07:43;99088.31;;;-5.37;100.00
11448;BME280;43755;49.736;8.734;2024-01-11T10:09:45;99085.06;;;-5.07;100.00
11448;BME280;43755;49.736;8.734;2024-01-11T10:11:47;99084.72;;;-4.92;100.00
11448;BME280;43755;49.736;8.734;2024-01-11T10:13:56;99093.22;;;-4.71;100.00
11448;BME280;43755;49.736;8.734;2024-01-11T10:16:09;99086.28;;;-4.47;100.00
11448;BME280;43755;49.736;8.734;2024-01-11T10:18:13;99095.31;;;-4.34;100.00
11448;BME280;43755;49.736;8.734;2024-01-11T10:20:15;99103.59;;;-4.19;100.00
11448;BME280;43755;49.736;8.734;2024-01-11T10:22:17;99116.78;;;-4.37;100.00
11448;BME280;43755;49.736;8.734;2024-01-11T10:24:19;99119.06;;;-4.71;100.00
11448;BME280;43755;49.736;8.734;2024-01-11T10:26:22;99119.66;;;-4.78;100.00
11448;BME280;43755;49.736;8.734;2024-01-11T10:28:23;99124.63;;;-4.83;100.00
11448;BME280;43755;49.736;8.734;2024-01-11T10:30:24;99124.84;;;-4.77;100.00
11448;BME280;43755;49.736;8.734;2024-01-11T10:32:29;99136.47;;;-4.64;100.00
11448;BME280;43755;49.736;8.734;2024-01-11T10:34:29;99127.94;;;-4.87;100.00
11448;BME280;43755;49.736;8.734;2024-01-11T10:36:31;99136.03;;;-5.24;100.00